createdAt,value
2018-02-14T00:01:53.367Z,77.10
2018-02-14T00:04:20.924Z,76.71
2018-02-14T00:06:48.722Z,76.07
2018-02-14T00:09:16.493Z,77.57
2018-02-14T00:11:44.101Z,77.32
2018-02-14T00:14:12.086Z,77.28
2018-02-14T00:16:39.885Z,77.78
2018-02-14T00:19:08.772Z,77.34
2018-02-14T00:21:36.407Z,77.35
2018-02-14T00:24:04.019Z,76.66
2018-02-14T00:26:31.716Z,78.12
2018-02-14T00:28:59.558Z,77.06
2018-02-14T00:31:27.164Z,77.80
2018-02-14T00:33:55.042Z,77.73
2018-02-14T00:36:22.946Z,78.02
2018-02-14T00:38:50.584Z,77.17
2018-02-14T00:41:18.362Z,77.17
2018-02-14T00:43:46.131Z,77.57
2018-02-14T00:46:13.777Z,76.80
2018-02-14T00:48:41.534Z,77.60
2018-02-14T00:51:09.574Z,76.44
2018-02-14T00:53:37.412Z,77.30
2018-02-14T00:56:05.207Z,76.74
2018-02-14T00:58:32.783Z,76.72
2018-02-14T01:01:00.533Z,76.79
2018-02-14T01:03:28.143Z,77.14
2018-02-14T01:05:55.969Z,77.75
2018-02-14T01:08:23.747Z,76.76
2018-02-14T01:10:51.344Z,76.95
2018-02-14T01:13:18.977Z,77.68
2018-02-14T01:15:46.690Z,77.11
2018-02-14T01:18:14.308Z,77.43
2018-02-14T01:20:44.096Z,76.76
2018-02-14T01:23:11.714Z,77.51
2018-02-14T01:25:40.488Z,76.76
2018-02-14T01:28:08.480Z,77.31
2018-02-14T01:30:36.071Z,77.78
2018-02-14T01:33:04.185Z,77.06
2018-02-14T01:35:33.150Z,77.42
2018-02-14T01:38:00.939Z,77.89
2018-02-14T01:40:29.445Z,77.33
2018-02-14T01:42:57.065Z,76.90
2018-02-14T01:45:24.828Z,76.19
2018-02-14T01:47:52.409Z,76.61
2018-02-14T01:50:20.024Z,77.48
2018-02-14T01:52:47.605Z,76.96
2018-02-14T01:55:15.150Z,77.70
2018-02-14T01:57:42.802Z,77.18
2018-02-14T02:00:10.594Z,77.95
2018-02-14T02:02:38.342Z,76.90
2018-02-14T02:05:06.230Z,77.42
2018-02-14T02:07:33.839Z,77.20
2018-02-14T02:10:01.493Z,77.16
2018-02-14T02:12:29.105Z,77.35
2018-02-14T02:14:56.720Z,77.20
2018-02-14T02:17:24.295Z,77.30
2018-02-14T02:19:51.962Z,76.49
2018-02-14T02:22:19.715Z,76.55
2018-02-14T02:24:47.303Z,77.73
2018-02-14T02:27:15.290Z,77.95
2018-02-14T02:29:42.911Z,77.44
2018-02-14T02:32:10.525Z,76.80
2018-02-14T02:34:38.349Z,78.02
2018-02-14T02:37:05.878Z,77.39
2018-02-14T02:39:45.892Z,77.73
2018-02-14T02:42:13.669Z,76.68
2018-02-14T02:44:41.486Z,78.60
2018-02-14T02:47:09.082Z,77.61
2018-02-14T02:49:36.681Z,76.76
2018-02-14T02:52:04.441Z,77.07
2018-02-14T02:54:32.330Z,77.16
2018-02-14T02:56:59.951Z,77.32
2018-02-14T02:59:27.733Z,77.30
2018-02-14T03:01:55.336Z,77.22
2018-02-14T03:04:23.204Z,76.63
2018-02-14T03:06:50.811Z,77.64
2018-02-14T03:09:18.407Z,77.37
2018-02-14T03:11:46.153Z,77.74
2018-02-14T03:14:13.897Z,77.10
2018-02-14T03:16:41.759Z,77.08
2018-02-14T03:19:09.379Z,76.97
2018-02-14T03:21:37.160Z,77.89
2018-02-14T03:24:04.715Z,77.26
2018-02-14T03:26:32.529Z,77.28
2018-02-14T03:29:00.143Z,77.38
2018-02-14T03:31:27.768Z,77.35
2018-02-14T03:33:55.369Z,76.98
2018-02-14T03:36:23.115Z,77.32
2018-02-14T03:38:50.680Z,77.18
2018-02-14T03:41:18.453Z,77.17
2018-02-14T03:43:46.214Z,76.76
2018-02-14T03:46:13.883Z,77.07
2018-02-14T03:48:41.621Z,77.50
2018-02-14T03:51:09.413Z,77.58
2018-02-14T03:53:37.171Z,77.71
2018-02-14T03:56:04.751Z,77.08
2018-02-14T03:58:32.535Z,77.41
2018-02-14T04:01:00.299Z,77.35
2018-02-14T04:03:28.126Z,77.11
2018-02-14T04:05:55.681Z,77.57
2018-02-14T04:08:23.235Z,77.33
2018-02-14T04:10:50.835Z,77.43
2018-02-14T04:13:18.456Z,77.37
2018-02-14T04:15:46.046Z,77.42
2018-02-14T04:18:13.835Z,77.67
2018-02-14T04:20:41.585Z,77.34
2018-02-14T04:23:09.208Z,77.59
2018-02-14T04:25:36.974Z,77.37
2018-02-14T04:31:04.427Z,77.35
2018-02-14T04:33:32.237Z,76.44
2018-02-14T04:35:59.829Z,77.86
2018-02-14T04:38:27.395Z,77.63
2018-02-14T04:40:55.556Z,76.78
2018-02-14T04:43:23.532Z,77.85
2018-02-14T04:45:51.083Z,76.47
2018-02-14T04:48:18.858Z,77.48
2018-02-14T04:50:46.454Z,77.61
2018-02-14T04:53:14.046Z,76.95
2018-02-14T04:55:41.868Z,77.77
2018-02-14T04:58:09.438Z,77.83
2018-02-14T05:00:37.059Z,77.84
2018-02-14T05:03:04.673Z,77.69
2018-02-14T05:05:32.515Z,77.49
2018-02-14T05:08:00.079Z,77.07
2018-02-14T05:10:27.848Z,76.83
2018-02-14T05:12:55.464Z,77.53
2018-02-14T05:15:23.297Z,77.55
2018-02-14T05:17:50.886Z,77.32
2018-02-14T05:20:18.476Z,78.23
2018-02-14T05:22:46.128Z,77.77
2018-02-14T05:25:13.673Z,87.50
2018-02-14T05:27:41.221Z,86.49
2018-02-14T05:30:08.837Z,89.97
2018-02-14T05:32:36.955Z,87.04
2018-02-14T05:35:04.515Z,74.71
2018-02-14T05:37:32.062Z,81.19
2018-02-14T05:39:59.748Z,75.55
2018-02-14T05:42:27.302Z,73.06
2018-02-14T05:44:55.184Z,72.38
2018-02-14T05:47:22.725Z,71.55
2018-02-14T05:49:50.498Z,71.27
2018-02-14T05:52:18.017Z,71.41
2018-02-14T05:54:45.865Z,71.17
2018-02-14T05:57:13.461Z,71.16
2018-02-14T05:59:41.054Z,71.20
2018-02-14T06:02:08.640Z,71.20
2018-02-14T06:04:36.169Z,71.26
2018-02-14T06:07:03.865Z,72.00
2018-02-14T06:09:31.648Z,72.06
2018-02-14T06:11:59.195Z,71.91
2018-02-14T06:14:26.749Z,72.39
2018-02-14T06:16:54.271Z,71.49
2018-02-14T06:19:21.821Z,71.21
2018-02-14T06:21:49.346Z,71.18
2018-02-14T06:24:16.876Z,71.44
2018-02-14T06:26:44.561Z,71.28
2018-02-14T06:29:12.078Z,70.85
2018-02-14T06:31:39.630Z,70.65
2018-02-14T06:34:07.173Z,70.33
2018-02-14T06:36:34.716Z,69.94
2018-02-14T06:39:02.229Z,69.73
2018-02-14T06:41:30.175Z,70.15
2018-02-14T06:43:57.999Z,69.62
2018-02-14T06:46:25.513Z,69.60
2018-02-14T06:48:53.029Z,69.64
2018-02-14T06:51:20.592Z,69.23
2018-02-14T06:53:48.131Z,69.63
2018-02-14T06:56:15.711Z,69.45
2018-02-14T06:58:43.234Z,69.07
2018-02-14T07:01:10.909Z,68.80
2018-02-14T07:03:38.693Z,69.17
2018-02-14T07:06:06.252Z,68.79
2018-02-14T07:08:33.762Z,68.45
2018-02-14T07:11:01.500Z,68.95
2018-02-14T07:13:29.363Z,68.68
2018-02-14T07:15:57.146Z,67.76
2018-02-14T07:18:24.806Z,68.34
2018-02-14T07:20:52.342Z,68.41
2018-02-14T07:23:25.475Z,68.18
2018-02-14T07:25:53.056Z,67.99
2018-02-14T07:28:20.970Z,68.12
2018-02-14T07:30:48.897Z,68.05
2018-02-14T07:33:16.416Z,67.88
2018-02-14T07:35:43.947Z,67.70
2018-02-14T07:38:11.497Z,67.34
2018-02-14T07:40:39.140Z,67.58
2018-02-14T07:43:06.793Z,67.45
2018-02-14T07:45:34.357Z,67.38
2018-02-14T07:48:01.899Z,67.13
2018-02-14T07:50:29.452Z,66.96
2018-02-14T07:52:56.978Z,66.79
2018-02-14T07:55:24.515Z,66.77
2018-02-14T07:57:52.056Z,67.44
2018-02-14T08:00:19.969Z,67.00
2018-02-14T08:02:47.481Z,66.64
2018-02-14T08:05:15.871Z,66.27
2018-02-14T08:07:43.419Z,66.10
2018-02-14T08:10:10.971Z,66.41
2018-02-14T08:12:38.533Z,65.60
2018-02-14T08:15:06.067Z,65.43
2018-02-14T08:17:33.628Z,65.35
2018-02-14T08:20:01.173Z,65.22
2018-02-14T08:22:28.734Z,64.58
2018-02-14T08:24:56.270Z,64.50
2018-02-14T08:27:24.134Z,64.16
2018-02-14T08:29:51.815Z,64.34
2018-02-14T08:32:19.672Z,64.07
2018-02-14T08:34:47.242Z,63.75
2018-02-14T08:37:14.762Z,63.69
2018-02-14T08:39:42.345Z,64.00
2018-02-14T08:42:09.890Z,63.69
2018-02-14T08:44:37.435Z,63.36
2018-02-14T08:47:04.970Z,63.76
2018-02-14T08:49:32.788Z,62.69
2018-02-14T08:52:00.302Z,62.35
2018-02-14T08:54:27.961Z,61.93
2018-02-14T08:56:55.526Z,60.98
2018-02-14T08:59:23.056Z,61.17
2018-02-14T09:01:50.608Z,60.43
2018-02-14T09:04:18.151Z,60.71
2018-02-14T09:06:45.912Z,60.28
2018-02-14T09:09:13.467Z,60.44
2018-02-14T09:11:41.018Z,60.67
2018-02-14T09:14:08.537Z,60.44
2018-02-14T09:16:36.088Z,60.62
2018-02-14T09:19:03.675Z,61.06
2018-02-14T09:21:31.254Z,60.85
2018-02-14T09:23:58.847Z,60.31
2018-02-14T09:26:26.379Z,60.46
2018-02-14T09:28:53.912Z,59.92
2018-02-14T09:31:21.487Z,60.12
2018-02-14T09:33:49.345Z,59.57
2018-02-14T09:36:17.331Z,59.45
2018-02-14T09:38:44.940Z,59.24
2018-02-14T09:41:12.507Z,60.00
2018-02-14T09:43:40.042Z,59.52
2018-02-14T09:46:07.593Z,59.47
2018-02-14T09:48:35.164Z,59.30
2018-02-14T09:51:02.725Z,58.68
2018-02-14T09:53:30.263Z,58.14
2018-02-14T09:55:57.938Z,57.91
2018-02-14T09:58:25.462Z,58.42
2018-02-14T10:00:53.516Z,58.40
2018-02-14T10:03:21.265Z,58.42
2018-02-14T10:05:49.075Z,59.03
2018-02-14T10:08:16.825Z,59.50
2018-02-14T10:10:44.781Z,59.25
2018-02-14T10:13:12.371Z,60.19
2018-02-14T10:15:40.161Z,59.69
2018-02-14T10:18:07.913Z,59.51
2018-02-14T10:20:35.451Z,58.48
2018-02-14T10:23:03.222Z,58.08
2018-02-14T10:25:30.954Z,57.36
2018-02-14T10:27:58.498Z,57.87
2018-02-14T10:30:26.051Z,58.83
2018-02-14T10:32:54.697Z,57.71
2018-02-14T10:35:22.246Z,56.26
2018-02-14T10:37:50.035Z,54.73
2018-02-14T10:40:17.554Z,53.03
2018-02-14T10:42:45.103Z,51.05
2018-02-14T10:45:12.673Z,49.54
2018-02-14T10:47:40.212Z,49.47
2018-02-14T10:50:07.737Z,48.77
2018-02-14T10:52:35.281Z,49.04
2018-02-14T10:55:02.801Z,49.29
2018-02-14T10:57:30.320Z,49.97
2018-02-14T10:59:57.979Z,49.68
2018-02-14T11:02:25.562Z,49.82
2018-02-14T11:04:58.682Z,49.30
2018-02-14T11:07:26.286Z,49.63
2018-02-14T11:09:53.809Z,49.68
2018-02-14T11:12:21.600Z,49.92
2018-02-14T11:14:49.166Z,49.98
2018-02-14T11:17:16.740Z,49.98
2018-02-14T11:19:44.276Z,50.32
2018-02-14T11:22:11.820Z,50.06
2018-02-14T11:24:39.363Z,50.73
2018-02-14T11:27:06.886Z,50.59
2018-02-14T11:29:34.470Z,50.72
2018-02-14T11:32:02.038Z,51.38
2018-02-14T11:34:29.552Z,50.95
2018-02-14T11:36:57.234Z,50.71
2018-02-14T11:39:24.793Z,50.34
2018-02-14T11:41:52.371Z,49.70
2018-02-14T11:44:19.957Z,49.67
2018-02-14T11:46:47.528Z,49.45
2018-02-14T11:49:15.086Z,49.42
2018-02-14T11:51:42.676Z,49.40
2018-02-14T11:54:10.226Z,49.10
2018-02-14T11:56:37.785Z,48.85
2018-02-14T11:59:05.525Z,49.01
2018-02-14T12:01:33.119Z,48.13
2018-02-14T12:04:00.658Z,47.14
2018-02-14T12:06:28.406Z,47.11
2018-02-14T12:08:55.980Z,46.97
2018-02-14T12:11:23.549Z,46.93
2018-02-14T12:13:51.076Z,46.82
2018-02-14T12:16:18.671Z,46.43
2018-02-14T12:18:46.324Z,46.58
2018-02-14T12:21:13.845Z,47.14
2018-02-14T12:23:41.422Z,46.95
2018-02-14T12:26:08.945Z,46.70
2018-02-14T12:28:36.483Z,47.00
2018-02-14T12:31:04.070Z,46.76
2018-02-14T12:33:31.628Z,46.82
2018-02-14T12:35:59.141Z,46.68
2018-02-14T12:38:26.699Z,46.76
2018-02-14T12:40:54.231Z,46.38
2018-02-14T12:43:21.742Z,47.08
2018-02-14T12:45:49.308Z,47.29
2018-02-14T12:48:16.850Z,47.41
2018-02-14T12:50:44.411Z,47.10
2018-02-14T12:53:12.181Z,47.10
2018-02-14T12:55:39.718Z,46.57
2018-02-14T12:58:07.262Z,46.94
2018-02-14T13:00:34.806Z,46.98
2018-02-14T13:03:02.345Z,46.67
2018-02-14T13:05:29.861Z,47.03
2018-02-14T13:07:57.425Z,47.76
2018-02-14T13:10:24.947Z,48.28
2018-02-14T13:12:52.509Z,49.14
2018-02-14T13:15:20.115Z,49.87
2018-02-14T13:17:48.635Z,50.14
2018-02-14T13:20:16.163Z,50.38
2018-02-14T13:22:43.767Z,50.60
2018-02-14T13:25:11.633Z,50.70
2018-02-14T13:27:40.710Z,51.14
2018-02-14T13:30:08.654Z,51.64
2018-02-14T13:32:36.941Z,51.97
2018-02-14T13:35:05.054Z,52.38
2018-02-14T13:37:32.800Z,52.51
2018-02-14T13:40:00.332Z,52.42
2018-02-14T13:42:28.449Z,52.69
2018-02-14T13:44:56.164Z,52.54
2018-02-14T13:47:23.718Z,52.34
2018-02-14T13:49:52.169Z,52.40
2018-02-14T13:52:24.536Z,52.03
2018-02-14T13:54:53.212Z,51.88
2018-02-14T13:57:20.849Z,51.78
2018-02-14T13:59:48.381Z,51.44
2018-02-14T14:02:15.961Z,51.54
2018-02-14T14:04:43.489Z,51.27
2018-02-14T14:07:11.098Z,50.79
2018-02-14T14:09:38.660Z,50.75
2018-02-14T14:12:06.186Z,50.96
2018-02-14T14:14:33.724Z,51.49
2018-02-14T14:17:01.400Z,51.79
2018-02-14T14:19:28.942Z,52.17
2018-02-14T14:21:56.460Z,52.36
2018-02-14T14:24:23.979Z,52.68
2018-02-14T14:26:51.907Z,52.69
2018-02-14T14:29:19.496Z,53.03
2018-02-14T14:31:47.032Z,52.73
2018-02-14T14:34:14.590Z,53.14
2018-02-14T14:36:42.157Z,53.46
2018-02-14T14:39:09.716Z,53.49
2018-02-14T14:41:37.244Z,53.92
2018-02-14T14:44:05.030Z,53.00
2018-02-14T14:46:32.559Z,52.79
2018-02-14T14:49:00.102Z,53.28
2018-02-14T14:51:27.669Z,53.63
2018-02-14T14:53:55.306Z,53.45
2018-02-14T14:56:22.855Z,53.90
2018-02-14T14:58:50.393Z,53.77
2018-02-14T15:01:17.967Z,54.58
2018-02-14T15:03:45.798Z,54.13
2018-02-14T15:06:13.337Z,54.44
2018-02-14T15:08:40.871Z,54.85
2018-02-14T15:11:08.400Z,55.57
2018-02-14T15:13:35.930Z,56.40
2018-02-14T15:16:03.445Z,56.34
2018-02-14T15:18:30.979Z,56.21
2018-02-14T15:20:58.512Z,56.25
2018-02-14T15:23:26.195Z,56.27
2018-02-14T15:25:53.705Z,57.89
2018-02-14T15:28:22.061Z,57.81
2018-02-14T15:30:49.654Z,57.92
2018-02-14T15:33:17.205Z,57.84
2018-02-14T15:35:44.730Z,57.63
2018-02-14T15:38:12.312Z,58.02
2018-02-14T15:40:40.087Z,58.57
2018-02-14T15:43:07.625Z,58.14
2018-02-14T15:45:35.964Z,59.02
2018-02-14T15:48:03.660Z,59.37
2018-02-14T15:50:31.348Z,59.83
2018-02-14T15:52:59.179Z,60.46
2018-02-14T15:55:26.781Z,60.37
2018-02-14T15:57:54.458Z,61.25
2018-02-14T16:00:22.017Z,61.41
2018-02-14T16:02:49.547Z,61.99
2018-02-14T16:05:17.131Z,62.37
2018-02-14T16:07:44.685Z,61.43
2018-02-14T16:10:13.013Z,62.38
2018-02-14T16:12:41.391Z,62.34
2018-02-14T16:15:08.999Z,62.49
2018-02-14T16:17:36.576Z,63.12
2018-02-14T16:20:04.122Z,63.47
2018-02-14T16:22:31.684Z,62.68
2018-02-14T16:24:59.265Z,70.49
2018-02-14T16:27:26.931Z,67.30
2018-02-14T16:29:54.458Z,67.07
2018-02-14T16:32:22.011Z,68.37
2018-02-14T16:34:49.543Z,67.44
2018-02-14T16:37:17.106Z,67.32
2018-02-14T16:39:44.650Z,66.33
2018-02-14T16:42:12.188Z,65.64
2018-02-14T16:44:40.153Z,65.39
2018-02-14T16:47:07.958Z,64.60
2018-02-14T16:49:35.732Z,64.66
2018-02-14T16:52:03.343Z,65.36
2018-02-14T16:54:30.871Z,65.33
2018-02-14T16:56:58.472Z,65.24
2018-02-14T16:59:26.046Z,66.07
2018-02-14T17:01:53.927Z,65.68
2018-02-14T17:04:21.487Z,66.43
2018-02-14T17:06:49.285Z,65.32
2018-02-14T17:09:16.840Z,65.53
2018-02-14T17:11:44.463Z,66.30
2018-02-14T17:14:12.039Z,65.67
2018-02-14T17:16:39.596Z,66.55
2018-02-14T17:19:07.425Z,66.75
2018-02-14T17:21:34.957Z,66.24
2018-02-14T17:24:02.559Z,66.48
2018-02-14T17:26:30.437Z,66.60
2018-02-14T17:28:58.178Z,66.22
2018-02-14T17:31:26.145Z,66.94
2018-02-14T17:33:53.726Z,66.77
2018-02-14T17:36:22.205Z,67.88
2018-02-14T17:38:49.948Z,66.22
2018-02-14T17:41:17.502Z,66.92
2018-02-14T17:43:46.288Z,66.78
2018-02-14T17:46:16.035Z,67.39
2018-02-14T17:48:44.962Z,74.41
2018-02-14T17:51:13.191Z,73.97
2018-02-14T17:53:40.949Z,73.35
2018-02-14T17:56:08.597Z,73.18
2018-02-14T17:58:36.207Z,73.15
2018-02-14T18:01:04.852Z,73.10
2018-02-14T18:03:32.691Z,73.93
2018-02-14T18:06:00.443Z,74.24
2018-02-14T18:08:28.668Z,74.61
2018-02-14T18:10:56.709Z,74.22
2018-02-14T18:13:24.709Z,74.87
2018-02-14T18:15:52.618Z,74.86
2018-02-14T18:18:21.217Z,74.99
2018-02-14T18:20:49.905Z,75.35
2018-02-14T18:23:21.336Z,74.86
2018-02-14T18:25:49.161Z,75.16
2018-02-14T18:28:16.807Z,74.70
2018-02-14T18:30:44.362Z,75.75
2018-02-14T18:33:12.107Z,75.21
2018-02-14T18:35:40.034Z,75.01
2018-02-14T18:38:07.676Z,75.59
2018-02-14T18:40:36.010Z,75.26
2018-02-14T18:43:03.742Z,75.62
2018-02-14T18:45:32.695Z,75.40
2018-02-14T18:48:00.902Z,75.81
2018-02-14T18:50:29.002Z,76.16
2018-02-14T18:52:57.054Z,76.14
2018-02-14T18:55:24.860Z,76.05
2018-02-14T18:57:52.626Z,75.58
2018-02-14T19:00:20.282Z,80.08
2018-02-14T19:02:47.966Z,81.73
2018-02-14T19:05:16.224Z,82.85
2018-02-14T19:07:44.254Z,79.94
2018-02-14T19:10:12.476Z,79.16
2018-02-14T19:12:40.490Z,78.35
2018-02-14T19:15:08.703Z,77.99
2018-02-14T19:17:36.568Z,78.16
2018-02-14T19:20:04.402Z,77.47
2018-02-14T19:22:32.490Z,77.23
2018-02-14T19:25:01.845Z,77.49
2018-02-14T19:27:29.848Z,77.36
2018-02-14T19:29:57.594Z,77.01
2018-02-14T19:32:25.253Z,77.13
2018-02-14T19:34:52.896Z,76.47
2018-02-14T19:37:20.779Z,76.91
2018-02-14T19:39:48.550Z,77.00
2018-02-14T19:42:16.889Z,76.12
2018-02-14T19:44:44.759Z,76.64
2018-02-14T19:47:12.453Z,77.11
2018-02-14T19:49:40.423Z,76.29
2018-02-14T19:52:09.732Z,76.93
2018-02-14T19:54:37.963Z,76.38
2018-02-14T19:57:07.509Z,76.62
2018-02-14T19:59:36.544Z,77.22
2018-02-14T20:02:05.644Z,77.03
2018-02-14T20:04:34.460Z,77.07
2018-02-14T20:07:02.358Z,76.80
2018-02-14T20:09:30.477Z,76.46
2018-02-14T20:11:59.220Z,77.12
2018-02-14T20:14:27.487Z,76.91
2018-02-14T20:16:55.255Z,76.99
2018-02-14T20:19:24.267Z,76.87
2018-02-14T20:21:53.480Z,77.02
2018-02-14T20:24:21.940Z,76.84
2018-02-14T20:26:51.091Z,76.64
2018-02-14T20:29:19.156Z,77.11
2018-02-14T20:31:47.639Z,76.90
2018-02-14T20:34:15.680Z,76.73
2018-02-14T20:36:43.346Z,77.35
2018-02-14T20:39:10.913Z,77.00
2018-02-14T20:41:41.341Z,77.14
2018-02-14T20:44:10.025Z,76.64
2018-02-14T20:46:38.176Z,76.88
2018-02-14T20:49:06.004Z,76.97
2018-02-14T20:51:33.896Z,76.84
2018-02-14T20:54:01.478Z,76.47
2018-02-14T20:56:29.941Z,77.29
2018-02-14T20:58:58.288Z,77.22
2018-02-14T21:01:25.896Z,76.78
2018-02-14T21:03:53.727Z,76.43
2018-02-14T21:06:21.492Z,77.11
2018-02-14T21:08:49.037Z,76.95
2018-02-14T21:11:16.577Z,76.66
2018-02-14T21:13:44.676Z,77.06
2018-02-14T21:16:12.214Z,77.23
2018-02-14T21:18:39.898Z,77.38
2018-02-14T21:21:07.672Z,76.78
2018-02-14T21:23:35.427Z,76.71
2018-02-14T21:26:03.813Z,77.21
2018-02-14T21:28:31.585Z,77.10
2018-02-14T21:30:59.260Z,76.83
2018-02-14T21:33:26.807Z,77.06
2018-02-14T21:35:54.624Z,77.20
2018-02-14T21:38:22.196Z,76.78
2018-02-14T21:40:49.739Z,77.12
2018-02-14T21:43:17.320Z,77.25
2018-02-14T21:45:44.869Z,77.30
2018-02-14T21:48:12.414Z,77.50
2018-02-14T21:50:40.187Z,77.15
2018-02-14T21:53:07.726Z,77.22
2018-02-14T21:55:35.274Z,77.48
2018-02-14T21:58:02.799Z,77.24
2018-02-14T22:00:30.370Z,76.85
2018-02-14T22:02:57.924Z,76.96
2018-02-14T22:05:25.505Z,76.85
2018-02-14T22:11:23.382Z,76.79
2018-02-14T22:13:57.722Z,76.43
2018-02-14T22:16:25.541Z,76.74
2018-02-14T22:18:53.176Z,77.13
2018-02-14T22:21:20.788Z,77.41
2018-02-14T22:23:48.363Z,76.69
2018-02-14T22:26:15.959Z,77.12
2018-02-14T22:28:43.603Z,76.79
2018-02-14T22:31:11.279Z,77.20
2018-02-14T22:33:38.844Z,76.96
2018-02-14T22:36:06.459Z,76.36
2018-02-14T22:38:34.141Z,76.95
2018-02-14T22:41:01.727Z,77.32
2018-02-14T22:43:29.303Z,77.38
2018-02-14T22:45:56.837Z,76.77
2018-02-14T22:48:24.470Z,77.09
2018-02-14T22:50:52.060Z,76.87
2018-02-14T22:53:19.648Z,77.01
2018-02-14T22:55:47.218Z,77.06
2018-02-14T22:58:14.758Z,77.30
2018-02-14T23:00:42.387Z,77.31
2018-02-14T23:03:09.919Z,77.48
2018-02-14T23:05:37.437Z,77.02
2018-02-14T23:08:04.975Z,77.29
2018-02-14T23:10:32.630Z,77.12
2018-02-14T23:13:00.233Z,77.28
2018-02-14T23:15:28.134Z,77.36
2018-02-14T23:17:55.667Z,76.84
2018-02-14T23:20:24.701Z,77.30
2018-02-14T23:22:52.328Z,77.38
2018-02-14T23:25:19.865Z,77.52
2018-02-14T23:27:47.410Z,76.63
2018-02-14T23:30:14.975Z,77.35
2018-02-14T23:32:42.494Z,76.96
2018-02-14T23:35:10.031Z,77.16
2018-02-14T23:37:37.585Z,77.07
2018-02-14T23:40:05.122Z,76.86
2018-02-14T23:42:32.676Z,76.95
2018-02-14T23:45:00.235Z,77.13
2018-02-14T23:47:27.753Z,77.24
2018-02-14T23:49:55.296Z,77.12
2018-02-14T23:52:22.842Z,77.04
2018-02-14T23:54:50.382Z,77.31
2018-02-14T23:57:17.947Z,77.08
2018-02-14T23:59:45.479Z,77.31
